BAW791G ESGG-EGLL
Flight info
| Callsign | BAW791G |
|---|---|
| Flight time | 1h 41m |
| Altitude | 38000 |
| Route | DETNA N866 UPGAS DCT TIPAN DCT WECOW DCT BINBO DCT AKOKO N866 BUKUT P7 BARMI |
| Aircraft | A320/M-SDE3FGHIRWY/LB1 |
Departure
| Time | 2026-05-07 18:39 |
|---|---|
| Airport | Göteborg Landvetter Airport (ESGG) |
Arrival
| Time | 2026-05-07 20:21 |
|---|---|
| Airport | London Heathrow Airport (EGLL) |
| Time | Latitude | Longitude | Altitude | Speed | Heading |
|---|---|---|---|---|---|
| 2026-05-07 18:06 | 57.66621 | 12.29178 | 522 ft | 0 kts | 115° |
| 2026-05-07 18:31 | 57.66623 | 12.29173 | 518 ft | 3 kts | 113° |
| 2026-05-07 18:32 | 57.66626 | 12.29132 | 514 ft | 3 kts | 81° |
| 2026-05-07 18:32 | 57.66627 | 12.29100 | 528 ft | 3 kts | 115° |
| 2026-05-07 18:32 | 57.66635 | 12.29059 | 525 ft | 4 kts | 91° |
| 2026-05-07 18:32 | 57.66630 | 12.29019 | 522 ft | 4 kts | 47° |
| 2026-05-07 18:33 | 57.66612 | 12.28994 | 522 ft | 4 kts | 23° |
| 2026-05-07 18:33 | 57.66594 | 12.28980 | 522 ft | 0 kts | 26° |
| 2026-05-07 18:35 | 57.66614 | 12.28998 | 522 ft | 6 kts | 26° |
| 2026-05-07 18:35 | 57.66669 | 12.29049 | 522 ft | 12 kts | 26° |
| 2026-05-07 18:35 | 57.66759 | 12.29131 | 524 ft | 17 kts | 26° |
| 2026-05-07 18:36 | 57.66873 | 12.29255 | 526 ft | 21 kts | 25° |
| 2026-05-07 18:36 | 57.67010 | 12.29380 | 525 ft | 23 kts | 26° |
| 2026-05-07 18:36 | 57.67153 | 12.29509 | 523 ft | 23 kts | 26° |
| 2026-05-07 18:36 | 57.67283 | 12.29625 | 523 ft | 19 kts | 25° |
| 2026-05-07 18:37 | 57.67362 | 12.29658 | 521 ft | 7 kts | 304° |
| 2026-05-07 18:37 | 57.67384 | 12.29560 | 520 ft | 9 kts | 302° |
| 2026-05-07 18:37 | 57.67417 | 12.29451 | 522 ft | 10 kts | 296° |
| 2026-05-07 18:37 | 57.67450 | 12.29331 | 522 ft | 12 kts | 296° |
| 2026-05-07 18:38 | 57.67458 | 12.29173 | 518 ft | 9 kts | 244° |
| 2026-05-07 18:38 | 57.67431 | 12.29053 | 519 ft | 11 kts | 247° |
| 2026-05-07 18:38 | 57.67378 | 12.28973 | 520 ft | 11 kts | 207° |
| 2026-05-07 18:38 | 57.67171 | 12.28784 | 526 ft | 65 kts | 207° |
| 2026-05-07 18:39 | 57.66577 | 12.28230 | 524 ft | 122 kts | 205° |
| 2026-05-07 18:39 | 57.65675 | 12.27387 | 562 ft | 162 kts | 211° |
| 2026-05-07 18:39 | 57.64660 | 12.26453 | 1068 ft | 165 kts | 208° |
| 2026-05-07 18:39 | 57.63618 | 12.25510 | 1635 ft | 167 kts | 209° |
| 2026-05-07 18:40 | 57.62528 | 12.24528 | 2018 ft | 184 kts | 208° |
| 2026-05-07 18:40 | 57.61318 | 12.23437 | 2206 ft | 204 kts | 207° |
| 2026-05-07 18:40 | 57.59957 | 12.22211 | 2465 ft | 230 kts | 206° |
| 2026-05-07 18:40 | 57.58463 | 12.20861 | 2865 ft | 252 kts | 208° |
| 2026-05-07 18:41 | 57.57110 | 12.18755 | 3590 ft | 259 kts | 236° |
| 2026-05-07 18:41 | 57.56448 | 12.15614 | 4429 ft | 264 kts | 258° |
| 2026-05-07 18:41 | 57.56088 | 12.12212 | 4900 ft | 270 kts | 258° |
| 2026-05-07 18:41 | 57.55736 | 12.08767 | 5019 ft | 270 kts | 259° |
| 2026-05-07 18:42 | 57.55387 | 12.05360 | 5042 ft | 266 kts | 259° |
| 2026-05-07 18:42 | 57.55037 | 12.01956 | 5310 ft | 270 kts | 259° |
| 2026-05-07 18:42 | 57.54684 | 11.98534 | 6267 ft | 269 kts | 259° |
| 2026-05-07 18:42 | 57.54325 | 11.95087 | 7117 ft | 271 kts | 259° |
| 2026-05-07 18:43 | 57.54038 | 11.91607 | 7930 ft | 274 kts | 267° |
| 2026-05-07 18:43 | 57.54138 | 11.88054 | 8747 ft | 276 kts | 276° |
| 2026-05-07 18:43 | 57.54283 | 11.85699 | 9296 ft | 277 kts | 276° |
| 2026-05-07 18:43 | 57.54575 | 11.80904 | 10347 ft | 280 kts | 276° |
| 2026-05-07 18:44 | 57.54718 | 11.78509 | 10807 ft | 282 kts | 276° |
| 2026-05-07 18:44 | 57.54938 | 11.74799 | 11213 ft | 298 kts | 276° |
| 2026-05-07 18:44 | 57.55173 | 11.70811 | 11359 ft | 321 kts | 276° |
| 2026-05-07 18:44 | 57.55421 | 11.66572 | 11673 ft | 335 kts | 276° |
| 2026-05-07 18:45 | 57.55677 | 11.62221 | 12271 ft | 340 kts | 276° |
| 2026-05-07 18:45 | 57.55936 | 11.57814 | 12940 ft | 343 kts | 276° |
| 2026-05-07 18:45 | 57.56196 | 11.53368 | 13605 ft | 346 kts | 276° |
| 2026-05-07 18:45 | 57.56452 | 11.48892 | 14227 ft | 349 kts | 276° |
| 2026-05-07 18:46 | 57.56707 | 11.44372 | 14819 ft | 352 kts | 276° |
| 2026-05-07 18:46 | 57.56961 | 11.39827 | 15391 ft | 354 kts | 276° |
| 2026-05-07 18:46 | 57.57212 | 11.35299 | 15952 ft | 357 kts | 276° |
| 2026-05-07 18:46 | 57.57467 | 11.30675 | 16513 ft | 360 kts | 276° |
| 2026-05-07 18:47 | 57.57723 | 11.26020 | 17083 ft | 363 kts | 276° |
| 2026-05-07 18:47 | 57.57981 | 11.21326 | 17659 ft | 365 kts | 276° |
| 2026-05-07 18:47 | 57.58239 | 11.16597 | 18233 ft | 368 kts | 275° |
| 2026-05-07 18:47 | 57.58213 | 11.11803 | 18768 ft | 372 kts | 264° |
| 2026-05-07 18:48 | 57.57668 | 11.07079 | 19295 ft | 375 kts | 252° |
| 2026-05-07 18:48 | 57.56618 | 11.02606 | 19837 ft | 380 kts | 242° |
| 2026-05-07 18:48 | 57.55095 | 10.98559 | 20375 ft | 384 kts | 232° |
| 2026-05-07 18:48 | 57.53385 | 10.94725 | 20905 ft | 387 kts | 232° |
| 2026-05-07 18:49 | 57.51661 | 10.90860 | 21415 ft | 389 kts | 232° |
| 2026-05-07 18:49 | 57.49925 | 10.86962 | 21905 ft | 392 kts | 232° |
| 2026-05-07 18:49 | 57.48183 | 10.83044 | 22386 ft | 394 kts | 232° |
| 2026-05-07 18:49 | 57.46429 | 10.79102 | 22856 ft | 397 kts | 232° |
| 2026-05-07 18:50 | 57.44657 | 10.75118 | 23254 ft | 401 kts | 232° |
| 2026-05-07 18:50 | 57.42870 | 10.71110 | 23647 ft | 405 kts | 232° |
| 2026-05-07 18:50 | 57.41067 | 10.67071 | 24023 ft | 408 kts | 232° |
| 2026-05-07 18:50 | 57.39250 | 10.63021 | 24389 ft | 410 kts | 232° |
| 2026-05-07 18:51 | 57.37416 | 10.58950 | 24753 ft | 412 kts | 232° |
| 2026-05-07 18:51 | 57.35597 | 10.54915 | 25099 ft | 414 kts | 232° |
| 2026-05-07 18:51 | 57.33740 | 10.50795 | 25448 ft | 416 kts | 232° |
| 2026-05-07 18:51 | 57.31879 | 10.46674 | 25799 ft | 419 kts | 232° |
| 2026-05-07 18:52 | 57.30006 | 10.42534 | 26132 ft | 421 kts | 232° |
| 2026-05-07 18:52 | 57.28116 | 10.38369 | 26492 ft | 423 kts | 232° |
| 2026-05-07 18:52 | 57.26222 | 10.34200 | 26812 ft | 425 kts | 232° |
| 2026-05-07 18:52 | 57.24321 | 10.30014 | 27145 ft | 427 kts | 232° |
| 2026-05-07 18:53 | 57.22406 | 10.25802 | 27458 ft | 429 kts | 231° |
| 2026-05-07 18:53 | 57.20480 | 10.21573 | 27737 ft | 432 kts | 231° |
| 2026-05-07 18:53 | 57.18544 | 10.17315 | 28056 ft | 434 kts | 233° |
| 2026-05-07 18:53 | 57.16865 | 10.12700 | 28414 ft | 434 kts | 239° |
| 2026-05-07 18:54 | 57.15271 | 10.07974 | 28752 ft | 435 kts | 239° |
| 2026-05-07 18:54 | 57.13670 | 10.03237 | 29193 ft | 434 kts | 239° |
| 2026-05-07 18:54 | 57.12071 | 9.98525 | 29660 ft | 433 kts | 239° |
| 2026-05-07 18:54 | 57.10475 | 9.93834 | 30141 ft | 431 kts | 239° |
| 2026-05-07 18:55 | 57.08886 | 9.89156 | 30545 ft | 430 kts | 239° |
| 2026-05-07 18:55 | 57.07321 | 9.84542 | 30920 ft | 430 kts | 239° |
| 2026-05-07 18:55 | 57.05741 | 9.79884 | 31294 ft | 429 kts | 239° |
| 2026-05-07 18:55 | 57.04157 | 9.75233 | 31671 ft | 429 kts | 239° |
| 2026-05-07 18:56 | 57.02567 | 9.70592 | 32056 ft | 429 kts | 239° |
| 2026-05-07 18:56 | 57.00976 | 9.65966 | 32442 ft | 428 kts | 239° |
| 2026-05-07 18:56 | 56.99385 | 9.61351 | 32784 ft | 429 kts | 239° |
| 2026-05-07 18:56 | 56.97784 | 9.56718 | 33115 ft | 430 kts | 238° |
| 2026-05-07 18:57 | 56.96181 | 9.52091 | 33473 ft | 430 kts | 238° |
| 2026-05-07 18:57 | 56.94575 | 9.47458 | 33846 ft | 430 kts | 238° |
| 2026-05-07 18:57 | 56.92972 | 9.42831 | 34201 ft | 430 kts | 238° |
| 2026-05-07 18:57 | 56.91371 | 9.38220 | 34515 ft | 429 kts | 238° |
| 2026-05-07 18:58 | 56.89774 | 9.33622 | 34829 ft | 428 kts | 238° |
| 2026-05-07 18:58 | 56.88177 | 9.29033 | 35143 ft | 427 kts | 238° |
| 2026-05-07 18:58 | 56.86580 | 9.24456 | 35447 ft | 426 kts | 238° |
| 2026-05-07 18:58 | 56.84986 | 9.19892 | 35744 ft | 425 kts | 238° |
| 2026-05-07 18:59 | 56.83397 | 9.15351 | 36033 ft | 424 kts | 238° |
| 2026-05-07 18:59 | 56.81806 | 9.10818 | 36312 ft | 423 kts | 238° |
| 2026-05-07 18:59 | 56.80234 | 9.06353 | 36581 ft | 423 kts | 238° |
| 2026-05-07 18:59 | 56.78644 | 9.01838 | 36845 ft | 422 kts | 238° |
| 2026-05-07 19:00 | 56.77053 | 8.97334 | 37076 ft | 422 kts | 238° |
| 2026-05-07 19:00 | 56.75463 | 8.92846 | 37301 ft | 422 kts | 238° |
| 2026-05-07 19:00 | 56.73869 | 8.88348 | 37534 ft | 421 kts | 238° |
| 2026-05-07 19:00 | 56.72278 | 8.83864 | 37764 ft | 421 kts | 238° |
| 2026-05-07 19:01 | 56.70686 | 8.79391 | 37994 ft | 420 kts | 238° |
| 2026-05-07 19:01 | 56.69116 | 8.74984 | 38126 ft | 421 kts | 237° |
| 2026-05-07 19:01 | 56.67520 | 8.70520 | 38139 ft | 421 kts | 237° |
| 2026-05-07 19:02 | 56.64323 | 8.61598 | 38141 ft | 421 kts | 237° |
| 2026-05-07 19:02 | 56.61120 | 8.52681 | 38155 ft | 421 kts | 237° |
| 2026-05-07 19:03 | 56.57921 | 8.43782 | 38152 ft | 421 kts | 237° |
| 2026-05-07 19:03 | 56.54722 | 8.34949 | 38146 ft | 421 kts | 237° |
| 2026-05-07 19:04 | 56.51493 | 8.26064 | 38144 ft | 422 kts | 237° |
| 2026-05-07 19:04 | 56.48249 | 8.17182 | 38143 ft | 423 kts | 237° |
| 2026-05-07 19:05 | 56.44999 | 8.08304 | 38159 ft | 423 kts | 237° |
| 2026-05-07 19:05 | 56.41741 | 7.99430 | 38164 ft | 424 kts | 237° |
| 2026-05-07 19:06 | 56.38473 | 7.90583 | 38169 ft | 424 kts | 237° |
| 2026-05-07 19:06 | 56.33554 | 7.77331 | 38174 ft | 424 kts | 236° |
| 2026-05-07 19:07 | 56.30288 | 7.68564 | 38141 ft | 424 kts | 236° |
| 2026-05-07 19:07 | 56.26974 | 7.59678 | 38152 ft | 425 kts | 236° |
| 2026-05-07 19:08 | 56.23683 | 7.50897 | 38154 ft | 426 kts | 236° |
| 2026-05-07 19:08 | 56.20366 | 7.42059 | 38175 ft | 426 kts | 236° |
| 2026-05-07 19:09 | 56.17037 | 7.33249 | 38177 ft | 426 kts | 236° |
| 2026-05-07 19:09 | 56.13695 | 7.24452 | 38163 ft | 426 kts | 236° |
| 2026-05-07 19:10 | 56.10377 | 7.15732 | 38175 ft | 426 kts | 236° |
| 2026-05-07 19:10 | 56.07035 | 7.06975 | 38149 ft | 426 kts | 236° |
| 2026-05-07 19:11 | 56.03683 | 6.98194 | 38153 ft | 427 kts | 236° |
| 2026-05-07 19:11 | 56.00316 | 6.89434 | 38158 ft | 428 kts | 235° |
| 2026-05-07 19:12 | 55.96937 | 6.80667 | 38166 ft | 428 kts | 235° |
| 2026-05-07 19:12 | 55.93571 | 6.71974 | 38170 ft | 428 kts | 235° |
| 2026-05-07 19:13 | 55.90172 | 6.63252 | 38176 ft | 428 kts | 235° |
| 2026-05-07 19:13 | 55.86772 | 6.54552 | 38173 ft | 428 kts | 235° |
| 2026-05-07 19:14 | 55.83379 | 6.45857 | 38158 ft | 428 kts | 235° |
| 2026-05-07 19:14 | 55.79974 | 6.37179 | 38167 ft | 428 kts | 235° |
| 2026-05-07 19:15 | 55.76560 | 6.28511 | 38165 ft | 428 kts | 235° |
| 2026-05-07 19:15 | 55.73142 | 6.19860 | 38170 ft | 428 kts | 235° |
| 2026-05-07 19:16 | 55.69723 | 6.11274 | 38186 ft | 429 kts | 234° |
| 2026-05-07 19:16 | 55.66281 | 6.02648 | 38179 ft | 428 kts | 234° |
| 2026-05-07 19:17 | 55.62842 | 5.94033 | 38170 ft | 428 kts | 234° |
| 2026-05-07 19:17 | 55.59399 | 5.85435 | 38170 ft | 429 kts | 234° |
| 2026-05-07 19:18 | 55.55941 | 5.76840 | 38164 ft | 429 kts | 234° |
| 2026-05-07 19:18 | 55.52470 | 5.68262 | 38163 ft | 430 kts | 234° |
| 2026-05-07 19:19 | 55.48996 | 5.59680 | 38171 ft | 430 kts | 234° |
| 2026-05-07 19:19 | 55.45508 | 5.51104 | 38169 ft | 430 kts | 234° |
| 2026-05-07 19:20 | 55.42018 | 5.42546 | 38176 ft | 430 kts | 234° |
| 2026-05-07 19:20 | 55.38545 | 5.34064 | 38156 ft | 430 kts | 233° |
| 2026-05-07 19:21 | 55.35035 | 5.25533 | 38168 ft | 430 kts | 233° |
| 2026-05-07 19:21 | 55.31525 | 5.17007 | 38170 ft | 430 kts | 233° |
| 2026-05-07 19:22 | 55.28005 | 5.08514 | 38163 ft | 430 kts | 233° |
| 2026-05-07 19:22 | 55.24137 | 5.00544 | 38168 ft | 429 kts | 220° |
| 2026-05-07 19:23 | 55.19121 | 4.94929 | 38166 ft | 429 kts | 208° |
| 2026-05-07 19:23 | 55.13897 | 4.90016 | 38142 ft | 429 kts | 208° |
| 2026-05-07 19:24 | 55.08628 | 4.85063 | 38154 ft | 429 kts | 208° |
| 2026-05-07 19:24 | 55.03359 | 4.80121 | 38151 ft | 430 kts | 208° |
| 2026-05-07 19:25 | 54.98085 | 4.75191 | 38150 ft | 430 kts | 208° |
| 2026-05-07 19:25 | 54.92801 | 4.70274 | 38165 ft | 430 kts | 208° |
| 2026-05-07 19:26 | 54.87520 | 4.65360 | 38161 ft | 430 kts | 208° |
| 2026-05-07 19:26 | 54.82239 | 4.60465 | 38151 ft | 430 kts | 208° |
| 2026-05-07 19:27 | 54.76990 | 4.55621 | 38161 ft | 430 kts | 208° |
| 2026-05-07 19:27 | 54.71697 | 4.50754 | 38155 ft | 430 kts | 208° |
| 2026-05-07 19:28 | 54.66408 | 4.45912 | 38137 ft | 430 kts | 207° |
| 2026-05-07 19:28 | 54.61108 | 4.41064 | 38154 ft | 430 kts | 208° |
| 2026-05-07 19:29 | 54.55843 | 4.36251 | 38155 ft | 431 kts | 207° |
| 2026-05-07 19:29 | 54.50537 | 4.31426 | 38155 ft | 431 kts | 207° |
| 2026-05-07 19:30 | 54.45237 | 4.26619 | 38164 ft | 431 kts | 207° |
| 2026-05-07 19:30 | 54.39930 | 4.21811 | 38157 ft | 431 kts | 207° |
| 2026-05-07 19:31 | 54.35482 | 4.17802 | 38145 ft | 431 kts | 207° |
| 2026-05-07 19:31 | 54.30202 | 4.13059 | 38158 ft | 431 kts | 207° |
| 2026-05-07 19:32 | 54.24880 | 4.08287 | 38157 ft | 432 kts | 207° |
| 2026-05-07 19:32 | 54.19554 | 4.03525 | 38157 ft | 432 kts | 207° |
| 2026-05-07 19:33 | 54.14225 | 3.98774 | 38155 ft | 432 kts | 207° |
| 2026-05-07 19:33 | 54.08887 | 3.94030 | 38157 ft | 432 kts | 207° |
| 2026-05-07 19:34 | 54.03584 | 3.89325 | 38154 ft | 432 kts | 207° |
| 2026-05-07 19:34 | 53.98239 | 3.84606 | 38154 ft | 433 kts | 207° |
| 2026-05-07 19:35 | 53.92894 | 3.79891 | 38150 ft | 433 kts | 207° |
| 2026-05-07 19:35 | 53.87536 | 3.75185 | 38150 ft | 433 kts | 207° |
| 2026-05-07 19:36 | 53.82171 | 3.70489 | 38152 ft | 434 kts | 207° |
| 2026-05-07 19:36 | 53.76803 | 3.65791 | 38156 ft | 434 kts | 207° |
| 2026-05-07 19:37 | 53.71433 | 3.61102 | 38159 ft | 434 kts | 207° |
| 2026-05-07 19:37 | 53.66088 | 3.56461 | 38152 ft | 434 kts | 207° |
| 2026-05-07 19:38 | 53.60705 | 3.51819 | 38150 ft | 434 kts | 207° |
| 2026-05-07 19:38 | 53.55334 | 3.47187 | 38152 ft | 434 kts | 207° |
| 2026-05-07 19:39 | 53.49956 | 3.42551 | 38153 ft | 434 kts | 207° |
| 2026-05-07 19:39 | 53.44612 | 3.37953 | 38148 ft | 434 kts | 207° |
| 2026-05-07 19:40 | 53.39231 | 3.33353 | 38147 ft | 434 kts | 207° |
| 2026-05-07 19:40 | 53.33844 | 3.28758 | 38147 ft | 434 kts | 207° |
| 2026-05-07 19:41 | 53.28467 | 3.24173 | 38140 ft | 434 kts | 207° |
| 2026-05-07 19:41 | 53.23071 | 3.19601 | 38140 ft | 434 kts | 207° |
| 2026-05-07 19:42 | 53.17673 | 3.15039 | 38134 ft | 434 kts | 207° |
| 2026-05-07 19:42 | 53.12286 | 3.10485 | 38135 ft | 434 kts | 207° |
| 2026-05-07 19:43 | 53.06894 | 3.05933 | 38138 ft | 434 kts | 207° |
| 2026-05-07 19:43 | 53.01496 | 3.01397 | 38144 ft | 434 kts | 207° |
| 2026-05-07 19:44 | 52.96131 | 2.96911 | 38118 ft | 434 kts | 207° |
| 2026-05-07 19:44 | 52.90724 | 2.92418 | 38132 ft | 434 kts | 207° |
| 2026-05-07 19:45 | 52.85328 | 2.87934 | 38131 ft | 434 kts | 207° |
| 2026-05-07 19:45 | 52.82631 | 2.85691 | 37885 ft | 434 kts | 207° |
| 2026-05-07 19:45 | 52.79937 | 2.83450 | 37610 ft | 433 kts | 207° |
| 2026-05-07 19:46 | 52.77244 | 2.81214 | 37351 ft | 432 kts | 207° |
| 2026-05-07 19:46 | 52.74668 | 2.78761 | 37161 ft | 421 kts | 218° |
| 2026-05-07 19:46 | 52.72577 | 2.75484 | 37057 ft | 409 kts | 228° |
| 2026-05-07 19:46 | 52.70716 | 2.72090 | 36842 ft | 398 kts | 228° |
| 2026-05-07 19:47 | 52.68857 | 2.68694 | 36373 ft | 396 kts | 228° |
| 2026-05-07 19:47 | 52.67001 | 2.65295 | 36289 ft | 396 kts | 228° |
| 2026-05-07 19:47 | 52.65142 | 2.61891 | 35770 ft | 406 kts | 228° |
| 2026-05-07 19:47 | 52.63211 | 2.58368 | 34810 ft | 418 kts | 228° |
| 2026-05-07 19:48 | 52.61252 | 2.54802 | 34543 ft | 423 kts | 227° |
| 2026-05-07 19:48 | 52.59265 | 2.51190 | 34058 ft | 428 kts | 227° |
| 2026-05-07 19:48 | 52.57280 | 2.47597 | 33523 ft | 430 kts | 227° |
| 2026-05-07 19:48 | 52.55267 | 2.43958 | 32968 ft | 431 kts | 227° |
| 2026-05-07 19:49 | 52.53246 | 2.40305 | 32435 ft | 432 kts | 227° |
| 2026-05-07 19:49 | 52.51223 | 2.36649 | 31907 ft | 432 kts | 227° |
| 2026-05-07 19:49 | 52.49205 | 2.33009 | 31385 ft | 429 kts | 228° |
| 2026-05-07 19:49 | 52.47204 | 2.29411 | 30877 ft | 424 kts | 228° |
| 2026-05-07 19:50 | 52.45223 | 2.25855 | 30373 ft | 420 kts | 228° |
| 2026-05-07 19:50 | 52.43264 | 2.22343 | 29828 ft | 416 kts | 228° |
| 2026-05-07 19:50 | 52.41317 | 2.18855 | 29250 ft | 412 kts | 228° |
| 2026-05-07 19:50 | 52.39387 | 2.15401 | 28692 ft | 409 kts | 228° |
| 2026-05-07 19:51 | 52.37476 | 2.11983 | 28140 ft | 405 kts | 228° |
| 2026-05-07 19:51 | 52.35603 | 2.08638 | 27603 ft | 402 kts | 228° |
| 2026-05-07 19:51 | 52.33717 | 2.05273 | 27066 ft | 399 kts | 228° |
| 2026-05-07 19:51 | 52.31840 | 2.01931 | 26548 ft | 396 kts | 228° |
| 2026-05-07 19:52 | 52.29979 | 1.98623 | 26031 ft | 394 kts | 228° |
| 2026-05-07 19:52 | 52.28131 | 1.95340 | 25537 ft | 391 kts | 228° |
| 2026-05-07 19:52 | 52.26298 | 1.92087 | 25026 ft | 388 kts | 228° |
| 2026-05-07 19:52 | 52.24470 | 1.88854 | 24539 ft | 386 kts | 228° |
| 2026-05-07 19:53 | 52.22655 | 1.85649 | 24060 ft | 384 kts | 228° |
| 2026-05-07 19:53 | 52.20846 | 1.82459 | 23564 ft | 382 kts | 228° |
| 2026-05-07 19:53 | 52.19043 | 1.79289 | 23019 ft | 381 kts | 228° |
| 2026-05-07 19:53 | 52.17240 | 1.76120 | 22464 ft | 380 kts | 228° |
| 2026-05-07 19:54 | 52.15469 | 1.73004 | 21929 ft | 379 kts | 228° |
| 2026-05-07 19:54 | 52.13677 | 1.69847 | 21401 ft | 378 kts | 227° |
| 2026-05-07 19:54 | 52.11892 | 1.66710 | 20948 ft | 375 kts | 227° |
| 2026-05-07 19:54 | 52.10134 | 1.63623 | 20665 ft | 368 kts | 227° |
| 2026-05-07 19:55 | 52.08401 | 1.60587 | 20387 ft | 364 kts | 227° |
| 2026-05-07 19:55 | 52.06679 | 1.57573 | 20107 ft | 363 kts | 227° |
| 2026-05-07 19:55 | 52.04963 | 1.54575 | 19825 ft | 362 kts | 227° |
| 2026-05-07 19:55 | 52.03270 | 1.51622 | 19522 ft | 360 kts | 227° |
| 2026-05-07 19:56 | 52.01544 | 1.48614 | 19230 ft | 359 kts | 227° |
| 2026-05-07 19:56 | 51.99869 | 1.45696 | 18954 ft | 357 kts | 227° |
| 2026-05-07 19:56 | 51.98180 | 1.42757 | 18660 ft | 358 kts | 227° |
| 2026-05-07 19:56 | 51.96463 | 1.39778 | 18372 ft | 363 kts | 227° |
| 2026-05-07 19:57 | 51.94756 | 1.36763 | 18040 ft | 363 kts | 231° |
| 2026-05-07 19:57 | 51.93495 | 1.33248 | 17710 ft | 361 kts | 248° |
| 2026-05-07 19:57 | 51.92579 | 1.29460 | 17386 ft | 360 kts | 248° |
| 2026-05-07 19:57 | 51.91675 | 1.25684 | 17075 ft | 359 kts | 248° |
| 2026-05-07 19:58 | 51.90776 | 1.21914 | 16758 ft | 358 kts | 248° |
| 2026-05-07 19:58 | 51.89882 | 1.18166 | 16445 ft | 356 kts | 248° |
| 2026-05-07 19:58 | 51.88991 | 1.14434 | 16134 ft | 355 kts | 248° |
| 2026-05-07 19:58 | 51.88097 | 1.10711 | 15769 ft | 353 kts | 248° |
| 2026-05-07 19:59 | 51.87207 | 1.07019 | 15315 ft | 351 kts | 248° |
| 2026-05-07 19:59 | 51.86331 | 1.03397 | 14869 ft | 349 kts | 248° |
| 2026-05-07 19:59 | 51.85451 | 0.99749 | 14433 ft | 347 kts | 248° |
| 2026-05-07 19:59 | 51.84577 | 0.96120 | 14006 ft | 345 kts | 247° |
| 2026-05-07 20:00 | 51.83704 | 0.92524 | 13531 ft | 342 kts | 247° |
| 2026-05-07 20:00 | 51.82835 | 0.88953 | 13047 ft | 340 kts | 247° |
| 2026-05-07 20:00 | 51.81970 | 0.85407 | 12565 ft | 338 kts | 247° |
| 2026-05-07 20:00 | 51.81112 | 0.81896 | 12104 ft | 335 kts | 247° |
| 2026-05-07 20:01 | 51.80258 | 0.78398 | 11634 ft | 333 kts | 247° |
| 2026-05-07 20:01 | 51.79412 | 0.74922 | 11179 ft | 331 kts | 247° |
| 2026-05-07 20:01 | 51.78572 | 0.71474 | 10737 ft | 329 kts | 247° |
| 2026-05-07 20:01 | 51.77737 | 0.68054 | 10295 ft | 325 kts | 247° |
| 2026-05-07 20:02 | 51.76921 | 0.64719 | 9840 ft | 311 kts | 247° |
| 2026-05-07 20:02 | 51.76138 | 0.61534 | 9347 ft | 298 kts | 247° |
| 2026-05-07 20:02 | 51.75393 | 0.58516 | 8878 ft | 287 kts | 247° |
| 2026-05-07 20:02 | 51.74664 | 0.55572 | 8406 ft | 278 kts | 247° |
| 2026-05-07 20:03 | 51.73955 | 0.52707 | 8113 ft | 273 kts | 247° |
| 2026-05-07 20:03 | 51.73250 | 0.49855 | 8079 ft | 274 kts | 247° |
| 2026-05-07 20:03 | 51.72544 | 0.46997 | 8082 ft | 275 kts | 248° |
| 2026-05-07 20:03 | 51.71833 | 0.44130 | 8084 ft | 275 kts | 248° |
| 2026-05-07 20:04 | 51.71124 | 0.41277 | 8084 ft | 274 kts | 248° |
| 2026-05-07 20:04 | 51.70413 | 0.38418 | 8084 ft | 274 kts | 248° |
| 2026-05-07 20:04 | 51.69703 | 0.35570 | 8082 ft | 273 kts | 248° |
| 2026-05-07 20:04 | 51.68993 | 0.32720 | 8083 ft | 274 kts | 248° |
| 2026-05-07 20:05 | 51.68286 | 0.29871 | 8082 ft | 274 kts | 248° |
| 2026-05-07 20:05 | 51.67573 | 0.27022 | 8083 ft | 275 kts | 248° |
| 2026-05-07 20:05 | 51.66853 | 0.24169 | 8082 ft | 274 kts | 247° |
| 2026-05-07 20:05 | 51.66141 | 0.21354 | 8081 ft | 274 kts | 247° |
| 2026-05-07 20:06 | 51.65428 | 0.18519 | 8083 ft | 273 kts | 248° |
| 2026-05-07 20:06 | 51.64744 | 0.15661 | 8081 ft | 274 kts | 253° |
| 2026-05-07 20:06 | 51.64465 | 0.12627 | 8084 ft | 275 kts | 265° |
| 2026-05-07 20:06 | 51.64346 | 0.09553 | 8084 ft | 276 kts | 266° |
| 2026-05-07 20:07 | 51.64245 | 0.06465 | 8083 ft | 276 kts | 266° |
| 2026-05-07 20:07 | 51.64151 | 0.03385 | 8081 ft | 275 kts | 266° |
| 2026-05-07 20:07 | 51.64054 | 0.00310 | 8082 ft | 275 kts | 266° |
| 2026-05-07 20:07 | 51.63959 | -0.02720 | 8059 ft | 274 kts | 266° |
| 2026-05-07 20:08 | 51.63854 | -0.05783 | 8060 ft | 274 kts | 266° |
| 2026-05-07 20:08 | 51.63746 | -0.08834 | 7836 ft | 272 kts | 266° |
| 2026-05-07 20:08 | 51.63638 | -0.11868 | 7494 ft | 271 kts | 266° |
| 2026-05-07 20:08 | 51.63529 | -0.14889 | 7160 ft | 270 kts | 266° |
| 2026-05-07 20:09 | 51.63416 | -0.17891 | 7048 ft | 269 kts | 266° |
| 2026-05-07 20:09 | 51.63301 | -0.20912 | 7055 ft | 270 kts | 266° |
| 2026-05-07 20:09 | 51.63187 | -0.23935 | 7057 ft | 271 kts | 266° |
| 2026-05-07 20:10 | 51.62960 | -0.29977 | 7057 ft | 271 kts | 266° |
| 2026-05-07 20:10 | 51.62845 | -0.32998 | 7057 ft | 271 kts | 266° |
| 2026-05-07 20:10 | 51.62729 | -0.36026 | 7085 ft | 271 kts | 266° |
| 2026-05-07 20:10 | 51.62614 | -0.39050 | 7084 ft | 271 kts | 266° |
| 2026-05-07 20:11 | 51.62497 | -0.42084 | 7086 ft | 272 kts | 266° |
| 2026-05-07 20:11 | 51.62378 | -0.45118 | 7084 ft | 271 kts | 266° |
| 2026-05-07 20:11 | 51.62262 | -0.48139 | 7084 ft | 271 kts | 266° |
| 2026-05-07 20:11 | 51.62144 | -0.51159 | 6959 ft | 269 kts | 266° |
| 2026-05-07 20:12 | 51.61966 | -0.54146 | 6651 ft | 267 kts | 259° |
| 2026-05-07 20:12 | 51.61474 | -0.56992 | 6471 ft | 260 kts | 252° |
| 2026-05-07 20:12 | 51.60907 | -0.59710 | 6336 ft | 252 kts | 251° |
| 2026-05-07 20:12 | 51.60350 | -0.62339 | 6133 ft | 247 kts | 251° |
| 2026-05-07 20:13 | 51.59795 | -0.64957 | 5792 ft | 247 kts | 251° |
| 2026-05-07 20:13 | 51.59244 | -0.67577 | 5455 ft | 248 kts | 251° |
| 2026-05-07 20:13 | 51.58704 | -0.70170 | 5125 ft | 248 kts | 251° |
| 2026-05-07 20:13 | 51.58161 | -0.72801 | 4791 ft | 248 kts | 251° |
| 2026-05-07 20:14 | 51.57624 | -0.75442 | 4445 ft | 249 kts | 251° |
| 2026-05-07 20:14 | 51.57085 | -0.78085 | 4105 ft | 249 kts | 251° |
| 2026-05-07 20:14 | 51.56493 | -0.80654 | 3984 ft | 239 kts | 240° |
| 2026-05-07 20:14 | 51.55407 | -0.82528 | 3990 ft | 223 kts | 207° |
| 2026-05-07 20:15 | 51.53995 | -0.83179 | 3989 ft | 204 kts | 185° |
| 2026-05-07 20:15 | 51.52630 | -0.83361 | 3988 ft | 192 kts | 181° |
| 2026-05-07 20:15 | 51.51302 | -0.83477 | 3994 ft | 191 kts | 181° |
| 2026-05-07 20:15 | 51.49996 | -0.83306 | 3994 ft | 187 kts | 154° |
| 2026-05-07 20:16 | 51.49294 | -0.82549 | 3984 ft | 183 kts | 133° |
| 2026-05-07 20:16 | 51.48280 | -0.80387 | 3596 ft | 184 kts | 122° |
| 2026-05-07 20:16 | 51.47705 | -0.78575 | 3318 ft | 182 kts | 104° |
| 2026-05-07 20:16 | 51.47599 | -0.76603 | 3168 ft | 173 kts | 90° |
| 2026-05-07 20:17 | 51.47607 | -0.75321 | 3132 ft | 167 kts | 90° |
| 2026-05-07 20:17 | 51.47619 | -0.73499 | 3080 ft | 164 kts | 90° |
| 2026-05-07 20:17 | 51.47631 | -0.71683 | 2933 ft | 162 kts | 90° |
| 2026-05-07 20:17 | 51.47642 | -0.69876 | 2742 ft | 162 kts | 90° |
| 2026-05-07 20:18 | 51.47652 | -0.68048 | 2530 ft | 161 kts | 90° |
| 2026-05-07 20:18 | 51.47662 | -0.66274 | 2318 ft | 161 kts | 91° |
| 2026-05-07 20:18 | 51.47672 | -0.64473 | 2104 ft | 161 kts | 91° |
| 2026-05-07 20:18 | 51.47682 | -0.62673 | 1887 ft | 162 kts | 91° |
| 2026-05-07 20:19 | 51.47691 | -0.60872 | 1687 ft | 162 kts | 91° |
| 2026-05-07 20:19 | 51.47701 | -0.59065 | 1455 ft | 162 kts | 91° |
| 2026-05-07 20:19 | 51.47710 | -0.57263 | 1220 ft | 159 kts | 91° |
| 2026-05-07 20:19 | 51.47723 | -0.55590 | 980 ft | 146 kts | 91° |
| 2026-05-07 20:20 | 51.47732 | -0.53994 | 841 ft | 141 kts | 92° |
| 2026-05-07 20:20 | 51.47730 | -0.52441 | 609 ft | 138 kts | 91° |
| 2026-05-07 20:20 | 51.47735 | -0.50917 | 431 ft | 137 kts | 91° |
| 2026-05-07 20:20 | 51.47747 | -0.49412 | 215 ft | 134 kts | 90° |
| 2026-05-07 20:21 | 51.47757 | -0.47917 | 97 ft | 129 kts | 91° |
| 2026-05-07 20:21 | 51.47752 | -0.46779 | 89 ft | 63 kts | 88° |
| 2026-05-07 20:21 | 51.47758 | -0.46287 | 89 ft | 41 kts | 90° |
| 2026-05-07 20:21 | 51.47756 | -0.45830 | 88 ft | 41 kts | 91° |
| 2026-05-07 20:22 | 51.47721 | -0.45502 | 87 ft | 18 kts | 145° |
| 2026-05-07 20:22 | 51.47660 | -0.45468 | 86 ft | 3 kts | 177° |
| 2026-05-07 20:22 | 51.47640 | -0.45466 | 86 ft | 0 kts | 177° |
| 2026-05-07 20:22 | 51.47637 | -0.45466 | 86 ft | 2 kts | 177° |
| 2026-05-07 20:23 | 51.47604 | -0.45504 | 86 ft | 9 kts | 237° |
| 2026-05-07 20:23 | 51.47592 | -0.45614 | 86 ft | 12 kts | 265° |
| 2026-05-07 20:23 | 51.47596 | -0.45760 | 90 ft | 15 kts | 274° |
| 2026-05-07 20:23 | 51.47594 | -0.45943 | 86 ft | 18 kts | 268° |
| 2026-05-07 20:24 | 51.47594 | -0.46161 | 86 ft | 21 kts | 270° |
| 2026-05-07 20:24 | 51.47594 | -0.46401 | 90 ft | 17 kts | 270° |
| 2026-05-07 20:24 | 51.47592 | -0.46609 | 86 ft | 20 kts | 269° |
| 2026-05-07 20:24 | 51.47591 | -0.46789 | 86 ft | 17 kts | 269° |
| 2026-05-07 20:25 | 51.47583 | -0.46991 | 90 ft | 19 kts | 269° |
| 2026-05-07 20:25 | 51.47582 | -0.47211 | 90 ft | 16 kts | 269° |
| 2026-05-07 20:25 | 51.47582 | -0.47402 | 90 ft | 18 kts | 270° |
| 2026-05-07 20:25 | 51.47580 | -0.47622 | 87 ft | 21 kts | 270° |
| 2026-05-07 20:26 | 51.47580 | -0.47855 | 90 ft | 17 kts | 270° |
| 2026-05-07 20:26 | 51.47579 | -0.48056 | 89 ft | 19 kts | 269° |
| 2026-05-07 20:26 | 51.47578 | -0.48251 | 88 ft | 13 kts | 269° |
| 2026-05-07 20:26 | 51.47577 | -0.48408 | 89 ft | 14 kts | 266° |
| 2026-05-07 20:27 | 51.47500 | -0.48476 | 86 ft | 15 kts | 179° |
| 2026-05-07 20:27 | 51.47393 | -0.48474 | 86 ft | 13 kts | 180° |
| 2026-05-07 20:27 | 51.47305 | -0.48474 | 86 ft | 11 kts | 179° |
| 2026-05-07 20:27 | 51.47236 | -0.48481 | 86 ft | 6 kts | 220° |
| 2026-05-07 20:28 | 51.47235 | -0.48506 | 88 ft | 1 kts | 262° |
| 2026-05-07 20:28 | 51.47233 | -0.48538 | 87 ft | 5 kts | 268° |
| 2026-05-07 20:28 | 51.47233 | -0.48584 | 89 ft | 1 kts | 269° |
| 2026-05-07 20:28 | 51.47233 | -0.48586 | 89 ft | 0 kts | 269° |